createdAt,value
2018-09-04T00:01:29.689Z,5.80
2018-09-04T00:06:33.154Z,5.70
2018-09-04T00:11:36.714Z,5.90
2018-09-04T00:16:40.078Z,5.80
2018-09-04T00:21:43.704Z,5.93
2018-09-04T00:26:47.101Z,5.80
2018-09-04T00:31:50.535Z,6.57
2018-09-04T00:36:53.876Z,6.33
2018-09-04T00:41:57.490Z,7.00
2018-09-04T00:47:01.024Z,6.70
2018-09-04T00:52:04.591Z,6.60
2018-09-04T00:57:08.732Z,7.97
2018-09-04T01:02:12.093Z,7.50
2018-09-04T01:07:16.478Z,8.10
2018-09-04T01:12:20.034Z,7.47
2018-09-04T01:17:23.817Z,8.30
2018-09-04T01:22:27.294Z,7.93
2018-09-04T01:27:30.692Z,8.57
2018-09-04T01:32:34.586Z,8.63
2018-09-04T01:37:37.952Z,8.63
2018-09-04T01:42:41.347Z,9.13
2018-09-04T01:47:44.890Z,9.10
2018-09-04T01:52:48.252Z,9.20
2018-09-04T01:57:51.927Z,9.23
2018-09-04T02:02:55.315Z,9.37
2018-09-04T02:07:59.031Z,10.40
2018-09-04T02:13:02.466Z,9.80
2018-09-04T02:18:06.406Z,10.00
2018-09-04T02:23:09.761Z,10.57
2018-09-04T02:28:13.216Z,10.87
2018-09-04T02:33:16.818Z,10.63
2018-09-04T02:38:20.261Z,11.20
2018-09-04T02:43:23.667Z,11.33
2018-09-04T02:48:27.328Z,11.63
2018-09-04T02:53:30.684Z,12.57
2018-09-04T02:58:34.232Z,11.40
2018-09-04T03:03:37.964Z,12.53
2018-09-04T03:08:41.590Z,11.57
2018-09-04T03:13:45.162Z,11.63
2018-09-04T03:18:48.583Z,12.10
2018-09-04T03:23:52.118Z,12.10
2018-09-04T03:28:55.604Z,12.77
2018-09-04T03:33:59.050Z,12.23
2018-09-04T04:29:40.404Z,14.00
2018-09-04T04:39:47.109Z,13.30
2018-09-04T11:54:30.803Z,4.97
2018-09-04T12:14:47.025Z,4.23
2018-09-04T12:20:46.839Z,4.28
2018-09-04T12:25:52.618Z,4.47
2018-09-04T12:30:56.850Z,4.42
2018-09-04T12:36:00.500Z,4.25
2018-09-04T12:41:06.512Z,3.85
2018-09-04T12:46:09.869Z,3.85
2018-09-04T12:51:13.507Z,3.90
2018-09-04T12:56:17.104Z,4.05
2018-09-04T13:01:20.465Z,4.50
2018-09-04T13:06:24.261Z,3.87
2018-09-04T13:11:27.773Z,3.42
2018-09-04T13:16:31.394Z,3.37
2018-09-04T13:21:34.922Z,3.72
2018-09-04T13:26:38.354Z,4.30
2018-09-04T13:31:41.915Z,4.00
2018-09-04T13:36:47.609Z,3.90
2018-09-04T13:41:51.294Z,4.25
2018-09-04T13:46:54.934Z,3.77
2018-09-04T13:51:59.752Z,4.15
2018-09-04T13:57:04.446Z,3.50
2018-09-04T14:02:08.128Z,3.80
2018-09-04T14:07:11.839Z,4.08
2018-09-04T14:12:15.174Z,4.12
2018-09-04T14:17:20.132Z,3.98
2018-09-04T14:22:23.543Z,4.10
2018-09-04T14:27:26.919Z,4.03
2018-09-04T14:32:30.676Z,4.03
2018-09-04T14:37:34.023Z,4.08
2018-09-04T14:42:37.490Z,4.20
2018-09-04T14:47:40.903Z,4.17
2018-09-04T14:52:44.302Z,4.28
2018-09-04T14:57:48.450Z,4.60
2018-09-04T15:02:51.871Z,3.90
2018-09-04T15:07:55.263Z,4.37
2018-09-04T15:12:58.673Z,4.00
2018-09-04T15:18:02.185Z,4.70
2018-09-04T15:23:06.065Z,4.42
2018-09-04T15:28:09.481Z,4.20
2018-09-04T15:33:13.089Z,4.95
2018-09-04T15:38:16.654Z,3.85
2018-09-04T15:43:20.249Z,4.08
2018-09-04T15:48:23.867Z,3.92
2018-09-04T15:53:27.437Z,3.98
2018-09-04T15:58:31.204Z,4.03
2018-09-04T16:03:34.635Z,3.47
2018-09-04T16:08:38.162Z,3.75
2018-09-04T16:13:41.437Z,4.05
2018-09-04T16:18:44.954Z,3.80
2018-09-04T16:23:48.499Z,3.60
2018-09-04T16:28:51.827Z,3.47
2018-09-04T16:33:55.383Z,3.65
2018-09-04T16:38:59.132Z,3.75
2018-09-04T16:44:03.074Z,4.17
2018-09-04T16:49:06.490Z,3.77
2018-09-04T16:54:09.923Z,4.20
2018-09-04T16:59:13.386Z,4.30
2018-09-04T17:04:17.382Z,4.50
2018-09-04T17:09:21.633Z,4.40
2018-09-04T17:14:25.030Z,4.08
2018-09-04T17:19:28.497Z,4.53
2018-09-04T17:24:32.003Z,4.17
2018-09-04T17:29:35.545Z,4.30
2018-09-04T17:34:39.053Z,4.33
2018-09-04T17:39:42.389Z,4.40
2018-09-04T17:44:45.734Z,4.50
2018-09-04T17:49:49.458Z,4.20
2018-09-04T17:54:53.049Z,4.30
2018-09-04T17:59:56.779Z,5.53
2018-09-04T18:05:00.181Z,5.30
2018-09-04T18:10:03.665Z,4.37
2018-09-04T18:15:07.474Z,4.30
2018-09-04T18:20:10.977Z,4.27
2018-09-04T18:25:14.328Z,4.50
2018-09-04T18:30:17.907Z,4.70
2018-09-04T18:35:21.333Z,4.97
2018-09-04T18:40:24.988Z,4.40
2018-09-04T18:45:47.642Z,4.50
2018-09-04T18:50:51.254Z,4.63
2018-09-04T18:55:54.619Z,4.67
2018-09-04T19:01:00.633Z,4.50
2018-09-04T19:06:04.451Z,4.27
2018-09-04T19:11:08.003Z,4.50
2018-09-04T19:16:11.872Z,4.50
2018-09-04T19:21:16.579Z,4.70
2018-09-04T19:26:20.217Z,4.73
2018-09-04T19:31:23.776Z,4.80
2018-09-04T19:36:27.372Z,4.80
2018-09-04T19:41:31.085Z,5.57
2018-09-04T19:46:34.925Z,5.10
2018-09-04T19:51:38.524Z,5.00
2018-09-04T19:56:42.317Z,4.80
2018-09-04T20:01:45.940Z,5.03
2018-09-04T20:06:49.372Z,5.70
2018-09-04T20:11:52.917Z,5.47
2018-09-04T20:16:56.557Z,6.07
2018-09-04T20:21:59.969Z,5.90
2018-09-04T20:27:03.673Z,5.97
2018-09-04T20:32:07.176Z,5.67
2018-09-04T20:37:10.928Z,5.43
2018-09-04T20:42:14.433Z,6.03
2018-09-04T20:47:17.842Z,6.30
2018-09-04T20:52:21.200Z,6.40
2018-09-04T20:57:27.615Z,6.13
2018-09-04T21:02:48.134Z,6.50
2018-09-04T21:08:12.567Z,6.70
2018-09-04T21:13:15.977Z,6.33
2018-09-04T21:18:19.422Z,7.47
2018-09-04T21:23:22.982Z,7.00
2018-09-04T21:28:26.441Z,7.13
2018-09-04T21:33:29.926Z,7.30
2018-09-04T21:38:33.511Z,7.07
2018-09-04T21:43:37.078Z,7.30
2018-09-04T21:48:40.618Z,8.10
2018-09-04T21:53:44.106Z,8.23
2018-09-04T21:58:47.472Z,8.50
2018-09-04T22:03:51.181Z,8.37
2018-09-04T22:08:54.823Z,9.10
2018-09-04T22:13:58.246Z,8.60
2018-09-04T22:19:02.304Z,9.03
2018-09-04T22:24:05.905Z,9.47
2018-09-04T22:29:09.429Z,10.10
2018-09-04T22:34:13.465Z,11.07
2018-09-04T22:39:17.016Z,10.07
2018-09-04T22:44:20.937Z,10.40
2018-09-04T22:49:24.367Z,10.87
2018-09-04T22:54:28.180Z,11.57
2018-09-04T22:59:31.753Z,12.10
2018-09-04T23:04:35.426Z,12.50
2018-09-04T23:09:38.803Z,13.00
2018-09-04T23:14:42.764Z,13.50
2018-09-04T23:19:46.287Z,12.73
2018-09-04T23:24:49.857Z,13.40
2018-09-04T23:29:53.440Z,13.10
2018-09-04T23:34:56.814Z,13.27
2018-09-04T23:40:00.417Z,14.37
2018-09-04T23:45:04.541Z,15.23
2018-09-04T23:50:07.967Z,14.87
2018-09-04T23:55:11.315Z,15.27
